地図

経路データ

SID SEASON NUMBER BASIN SUBBASIN NAME ISO_TIME NATURE LAT LON WMO_WIND WMO_PRES WMO_AGENCY TRACK_TYPE DIST2LAND LANDFALL IFLAG USA_AGENCY USA_ATCF_ID USA_LAT USA_LON USA_RECORD USA_STATUS USA_WIND USA_PRES USA_SSHS USA_R34_NE USA_R34_SE USA_R34_SW USA_R34_NW USA_R50_NE USA_R50_SE USA_R50_SW USA_R50_NW USA_R64_NE USA_R64_SE USA_R64_SW USA_R64_NW USA_POCI USA_ROCI USA_RMW USA_EYE TOKYO_LAT TOKYO_LON TOKYO_GRADE TOKYO_WIND TOKYO_PRES TOKYO_R50_DIR TOKYO_R50_LONG TOKYO_R50_SHORT TOKYO_R30_DIR TOKYO_R30_LONG TOKYO_R30_SHORT TOKYO_LAND CMA_LAT CMA_LON CMA_CAT CMA_WIND CMA_PRES HKO_LAT HKO_LON HKO_CAT HKO_WIND HKO_PRES NEWDELHI_LAT NEWDELHI_LON NEWDELHI_GRADE NEWDELHI_WIND NEWDELHI_PRES NEWDELHI_CI NEWDELHI_DP NEWDELHI_POCI REUNION_LAT REUNION_LON REUNION_TYPE REUNION_WIND REUNION_PRES REUNION_TNUM REUNION_CI REUNION_RMW REUNION_R34_NE REUNION_R34_SE REUNION_R34_SW REUNION_R34_NW REUNION_R50_NE REUNION_R50_SE REUNION_R50_SW REUNION_R50_NW REUNION_R64_NE REUNION_R64_SE REUNION_R64_SW REUNION_R64_NW BOM_LAT BOM_LON BOM_TYPE BOM_WIND BOM_PRES BOM_TNUM BOM_CI BOM_RMW BOM_R34_NE BOM_R34_SE BOM_R34_SW BOM_R34_NW BOM_R50_NE BOM_R50_SE BOM_R50_SW BOM_R50_NW BOM_R64_NE BOM_R64_SE BOM_R64_SW BOM_R64_NW BOM_ROCI BOM_POCI BOM_EYE BOM_POS_METHOD BOM_PRES_METHOD NADI_LAT NADI_LON NADI_CAT NADI_WIND NADI_PRES WELLINGTON_LAT WELLINGTON_LON WELLINGTON_WIND WELLINGTON_PRES DS824_LAT DS824_LON DS824_STAGE DS824_WIND DS824_PRES TD9636_LAT TD9636_LON TD9636_STAGE TD9636_WIND TD9636_PRES TD9635_LAT TD9635_LON TD9635_WIND TD9635_PRES TD9635_ROCI NEUMANN_LAT NEUMANN_LON NEUMANN_CLASS NEUMANN_WIND NEUMANN_PRES MLC_LAT MLC_LON MLC_CLASS MLC_WIND MLC_PRES USA_GUST BOM_GUST BOM_GUST_PER REUNION_GUST REUNION_GUST_PER USA_SEAHGT USA_SEARAD_NE USA_SEARAD_SE USA_SEARAD_SW USA_SEARAD_NW STORM_SPEED STORM_DIR
1990180N09159 1990 44 WP MM ROBYN 1990-06-29 00:00:00 NR 9.20000 159.200 main 1611 1587 O_____________ jtwc_wp WP081990 9.20000 159.200 15 -1 4 207
1990180N09159 1990 44 WP MM ROBYN 1990-06-29 03:00:00 NR 9.00001 159.100 main 1587 1562 P_____________ WP081990 9.00001 159.100 15 -1 4 206
1990180N09159 1990 44 WP MM ROBYN 1990-06-29 06:00:00 NR 8.80000 159.000 main 1562 1537 O_____________ jtwc_wp WP081990 8.80000 159.000 15 -1 4 206
1990180N09159 1990 44 WP MM ROBYN 1990-06-29 09:00:00 NR 8.60000 158.900 main 1537 1512 P_____________ WP081990 8.60000 158.900 15 -1 4 206
1990180N09159 1990 44 WP MM ROBYN 1990-06-29 12:00:00 NR 8.40000 158.800 main 1512 1487 O_____________ jtwc_wp WP081990 8.40000 158.800 15 -1 5 206
1990180N09159 1990 44 WP MM ROBYN 1990-06-29 15:00:00 NR 8.19250 158.700 main 1487 1463 P_____________ WP081990 8.19250 158.700 15 -1 4 206
1990180N09159 1990 44 WP MM ROBYN 1990-06-29 18:00:00 NR 8.00000 158.600 main 1463 1447 O_____________ jtwc_wp WP081990 8.00000 158.600 15 -1 4 211
1990180N09159 1990 44 WP MM ROBYN 1990-06-29 21:00:00 NR 7.85750 158.500 main 1447 1422 P_____________ WP081990 7.85750 158.500 15 -1 4 213
1990180N09159 1990 44 WP MM ROBYN 1990-06-30 00:00:00 NR 7.70000 158.400 main 1422 1397 O_____________ jtwc_wp WP081990 7.70000 158.400 15 -1 4 205
1990180N09159 1990 44 WP MM ROBYN 1990-06-30 03:00:00 NR 7.45749 158.308 main 1397 1363 P_____________ WP081990 7.45749 158.308 15 -1 5 202
1990180N09159 1990 44 WP MM ROBYN 1990-06-30 06:00:00 NR 7.20000 158.200 main 1363 1338 O_____________ jtwc_wp WP081990 7.20000 158.200 15 -1 5 206
1990180N09159 1990 44 WP MM ROBYN 1990-06-30 09:00:00 NR 6.97749 158.073 main 1338 1307 P_____________ WP081990 6.97749 158.073 15 -1 5 217
1990180N09159 1990 44 WP MM ROBYN 1990-06-30 12:00:00 NR 6.80000 157.900 main 1307 1286 O_____________ jtwc_wp WP081990 6.80000 157.900 15 -1 5 233
1990180N09159 1990 44 WP MM ROBYN 1990-06-30 15:00:00 NR 6.67750 157.673 main 1286 1259 P_____________ WP081990 6.67750 157.673 15 -1 5 248
1990180N09159 1990 44 WP MM ROBYN 1990-06-30 18:00:00 NR 6.60000 157.400 main 1259 1233 O_____________ jtwc_wp WP081990 6.60000 157.400 15 -1 6 256
1990180N09159 1990 44 WP MM ROBYN 1990-06-30 21:00:00 NR 6.53501 157.100 main 1233 1216 P_____________ WP081990 6.53501 157.100 15 -1 6 260
1990180N09159 1990 44 WP MM ROBYN 1990-07-01 00:00:00 NR 6.50000 156.800 main 1216 1206 O_____________ jtwc_wp WP081990 6.50000 156.800 15 -1 6 265
1990180N09159 1990 44 WP MM ROBYN 1990-07-01 03:00:00 NR 6.48498 156.543 main 1200 1190 P_____________ WP081990 6.48498 156.543 17 -1 5 270
1990180N09159 1990 44 WP MM ROBYN 1990-07-01 06:00:00 NR 6.50000 156.300 main 1190 1180 O_____________ jtwc_wp WP081990 6.50000 156.300 20 -1 5 277
1990180N09159 1990 44 WP MM ROBYN 1990-07-01 09:00:00 NR 6.54248 156.058 main 1180 1175 P_____________ WP081990 6.54248 156.058 20 -1 5 281
1990180N09159 1990 44 WP MM ROBYN 1990-07-01 12:00:00 NR 6.60000 155.800 main 1175 1160 O_____________ jtwc_wp WP081990 6.60000 155.800 20 -1 6 280
1990180N09159 1990 44 WP MM ROBYN 1990-07-01 15:00:00 NR 6.64249 155.507 main 1160 1156 P_____________ WP081990 6.64249 155.507 20 -1 6 280
1990180N09159 1990 44 WP MM ROBYN 1990-07-01 18:00:00 NR 6.70000 155.200 main 1156 1147 O_____________ jtwc_wp WP081990 6.70000 155.200 20 -1 6 284
1990180N09159 1990 44 WP MM ROBYN 1990-07-01 21:00:00 NR 6.78487 154.945 main 1153 1149 P_____________ WP081990 6.78487 154.945 20 -1 6 289
1990180N09159 1990 44 WP MM ROBYN 1990-07-02 00:00:00 NR 6.90000 154.600 main 1151 1143 O_____________ jtwc_wp WP081990 6.90000 154.600 20 -1 9 286
1990180N09159 1990 44 WP MM ROBYN 1990-07-02 03:00:00 NR 7.03509 154.037 main 1140 1138 P_____________ WP081990 7.03509 154.037 20 -1 12 284
1990180N09159 1990 44 WP MM ROBYN 1990-07-02 06:00:00 NR 7.20000 153.400 main 1143 1140 O_____________ jtwc_wp WP081990 7.20000 153.400 20 -1 12 287
1990180N09159 1990 44 WP MM ROBYN 1990-07-02 09:00:00 NR 7.39235 152.857 main 1153 1149 P_____________ WP081990 7.39235 152.857 20 -1 12 290
1990180N09159 1990 44 WP MM ROBYN 1990-07-02 12:00:00 NR 7.60000 152.300 main 1164 1163 O_____________ jtwc_wp WP081990 7.60000 152.300 20 -1 13 289
1990180N09159 1990 44 WP MM ROBYN 1990-07-02 15:00:00 NR 7.80756 151.643 main 1179 1178 P_____________ WP081990 7.80756 151.643 20 -1 14 287
1990180N09159 1990 44 WP MM ROBYN 1990-07-02 18:00:00 NR 8.00000 151.000 main 1199 1193 O_____________ jtwc_wp WP081990 8.00000 151.000 20 -1 12 287
1990180N09159 1990 44 WP MM ROBYN 1990-07-02 21:00:00 NR 8.14215 150.522 main 1193 1193 P_____________ WP081990 8.14215 150.522 20 -1 10 287
1990180N09159 1990 44 WP MM ROBYN 1990-07-03 00:00:00 NR 8.30000 150.000 main 1200 1197 O_____________ jtwc_wp WP081990 8.30000 150.000 20 -1 13 288
1990180N09159 1990 44 WP MM ROBYN 1990-07-03 03:00:00 NR 8.54258 149.245 main 1204 1204 P_____________ WP081990 8.54258 149.245 20 -1 17 288
1990180N09159 1990 44 WP MM ROBYN 1990-07-03 06:00:00 NR 8.80000 148.400 main 1226 1224 O_____________ jtwc_wp WP081990 8.80000 148.400 20 -1 17 285
1990180N09159 1990 44 WP MM ROBYN 1990-07-03 09:00:00 NR 8.99233 147.600 main 1244 1243 P_____________ WP081990 8.99233 147.600 20 -1 16 284
1990180N09159 1990 44 WP MM ROBYN 1990-07-03 12:00:00 NR 9.20000 146.800 main 1266 1266 O_____________ jtwc_wp WP081990 9.20000 146.800 20 -1 17 287
1990180N09159 1990 44 WP MM ROBYN 1990-07-03 15:00:00 NR 9.48492 145.985 main 1301 1301 P_____________ WP081990 9.48492 145.985 20 -1 17 291
1990180N09159 1990 44 WP MM ROBYN 1990-07-03 18:00:00 NR 9.80000 145.200 main 1342 1342 O_____________ jtwc_wp WP081990 9.80000 145.200 20 -1 16 293
1990180N09159 1990 44 WP MM ROBYN 1990-07-03 21:00:00 NR 10.1298 144.470 main 1386 1386 P_____________ WP081990 10.1298 144.470 20 -1 15 294
1990180N09159 1990 44 WP MM ROBYN 1990-07-04 00:00:00 NR 10.4000 143.800 main 1434 1434 O_____________ jtwc_wp WP081990 10.4000 143.800 20 -1 13 288
1990180N09159 1990 44 WP MM ROBYN 1990-07-04 03:00:00 NR 10.5523 143.185 main 1472 1451 P_____________ WP081990 10.5523 143.185 22 -1 12 280
1990180N09159 1990 44 WP MM ROBYN 1990-07-04 06:00:00 NR 10.6000 142.600 main 1451 1430 O_____________ jtwc_wp WP081990 10.6000 142.600 25 -1 12 271
1990180N09159 1990 44 WP MM ROBYN 1990-07-04 09:00:00 NR 10.5723 142.007 main 1430 1401 P_____________ WP081990 10.5723 142.007 25 -1 12 265
1990180N09159 1990 44 WP MM ROBYN 1990-07-04 12:00:00 NR 10.5000 141.400 main 1401 1367 O_____________ jtwc_wp WP081990 10.5000 141.400 25 -1 12 263
1990180N09159 1990 44 WP MM ROBYN 1990-07-04 15:00:00 NR 10.4272 140.787 main 1367 1354 P_____________ WP081990 10.4272 140.787 25 -1 9 267
1990180N09159 1990 44 WP MM ROBYN 1990-07-04 18:00:00 TS 10.4571 140.486 1004 tokyo main 1364 1345 OOOO__________ jtwc_wp WP081990 10.4000 140.100 25 -1 11.0000 141.000 2 1004 0 0 0 11.0000 141.000 0 19 1004 9.60000 141.000 TD 25 1000 10 279
1990180N09159 1990 44 WP MM ROBYN 1990-07-04 21:00:00 TS 10.5908 139.754 main 1348 1331 PPPP__________ WP081990 10.4622 139.317 25 -1 11.0010 139.950 2 1003 0 0 11.0034 139.952 0 19 1003 10.0254 140.233 TD 25 1000 16 280
1990180N09159 1990 44 WP MM ROBYN 1990-07-05 00:00:00 TS 10.7385 138.931 1002 tokyo main 1328 1322 OOOO__________ jtwc_wp WP081990 10.6000 138.400 25 -1 11.0000 139.000 2 1002 0 0 0 11.0000 139.000 0 19 1002 10.4000 139.500 TD 25 1000 16 280
1990180N09159 1990 44 WP MM ROBYN 1990-07-05 03:00:00 TS 10.8642 138.136 main 1312 1241 PPPP__________ WP081990 10.7778 137.300 25 -1 10.9995 138.213 2 1002 0 0 10.9921 138.205 0 19 1002 10.6873 138.827 TD 25 1000 16 279
1990180N09159 1990 44 WP MM ROBYN 1990-07-05 06:00:00 TS 10.9750 137.350 1002 tokyo main 1241 1157 OOOO__________ jtwc_wp WP081990 11.0000 136.200 25 -1 11.0000 137.500 2 1002 0 0 0 11.0000 137.500 0 19 1002 10.9000 138.200 TD 25 1000 15 278
1990180N09159 1990 44 WP MM ROBYN 1990-07-05 09:00:00 TS 11.0686 136.587 main 1157 1085 PPPP__________ WP081990 11.2348 135.253 25 -1 10.9626 136.712 2 1002 0 0 11.0199 136.770 0 21 1002 11.0572 137.615 TD 25 1000 14 279
1990180N09159 1990 44 WP MM ROBYN 1990-07-05 12:00:00 TS 11.2000 135.900 1002 tokyo main 1085 1026 OOOO__________ jtwc_wp WP081990 11.5000 134.500 25 -1 11.0000 136.000 2 1002 0 0 0 11.1000 136.100 1 23 1002 11.2000 137.000 TD 25 1000 13 285
1990180N09159 1990 44 WP MM ROBYN 1990-07-05 15:00:00 TS 11.4148 135.304 main 1026 978 PPPP__________ WP081990 11.7847 133.960 25 -1 11.2122 135.463 2 1001 0 0 11.2698 135.520 1 23 1001 11.3925 136.272 TD 25 1000 12 293
1990180N09159 1990 44 WP MM ROBYN 1990-07-05 18:00:00 TS 11.6750 134.775 1000 tokyo main 981 932 OOOO__________ jtwc_wp WP081990 12.1000 133.600 25 -1 11.5000 135.000 2 1000 0 0 0 11.5000 135.000 1 23 1000 11.6000 135.500 TD 25 1000 12 297
1990180N09159 1990 44 WP MM ROBYN 1990-07-05 21:00:00 TS 11.9337 134.256 main 932 882 PPPP__________ WP081990 12.4499 133.320 25 -1 11.7499 134.500 2 1000 0 0 11.7424 134.492 1 23 1000 11.7926 134.712 TD 27 1000 11 298
1990180N09159 1990 44 WP MM ROBYN 1990-07-06 00:00:00 TS 12.2000 133.775 1000 tokyo main 882 842 OOOO__________ jtwc_wp WP081990 12.8000 133.100 25 -1 12.0000 134.000 2 1000 0 0 0 12.0000 134.000 1 23 1000 12.0000 134.000 TD 30 1000 10 301
1990180N09159 1990 44 WP MM ROBYN 1990-07-06 03:00:00 TS 12.4642 133.336 main 834 796 PPPP__________ WP081990 13.1149 132.880 25 -1 12.2499 133.500 2 1000 0 0 12.2499 133.500 1 23 1000 12.2422 133.462 TD 30 1000 10 302
1990180N09159 1990 44 WP MM ROBYN 1990-07-06 06:00:00 TS 12.7250 132.900 1000 tokyo main 796 752 OOOO__________ jtwc_wp WP081990 13.4000 132.600 25 -1 12.5000 133.000 2 1000 0 0 0 12.5000 133.000 1 23 1000 12.5000 133.000 TD 30 1000 10 300
1990180N09159 1990 44 WP MM ROBYN 1990-07-06 09:00:00 TS 12.9806 132.418 main 752 714 PPPP__________ WP081990 13.6726 132.180 25 -1 12.7499 132.500 2 1000 0 0 12.7499 132.500 1 23 1000 12.7499 132.492 TD 27 1000 11 298
1990180N09159 1990 44 WP MM ROBYN 1990-07-06 12:00:00 TS 13.2250 131.925 1000 tokyo main 703 664 OOOO__________ jtwc_wp WP081990 13.9000 131.700 25 -1 13.0000 132.000 2 1000 0 0 0 13.0000 132.000 1 23 1000 13.0000 132.000 TD 25 1000 11 296
1990180N09159 1990 44 WP MM ROBYN 1990-07-06 15:00:00 TS 13.4480 131.444 main 654 616 PPPP__________ WP081990 14.0500 131.235 25 -1 13.2499 131.500 2 999 0 0 13.2499 131.500 1 26 999 13.2424 131.542 TD 27 1000 10 296
1990180N09159 1990 44 WP MM ROBYN 1990-07-06 18:00:00 TS 13.6750 130.975 998 tokyo main 619 574 OOOO__________ jtwc_wp WP081990 14.2000 130.800 25 -1 13.5000 131.000 2 998 0 0 0 13.5000 131.000 1 29 998 13.5000 131.100 TD 30 1000 10 297
1990180N09159 1990 44 WP MM ROBYN 1990-07-06 21:00:00 TS 13.9206 130.502 main 574 546 PPPP__________ WP081990 14.4199 130.435 27 -1 13.7501 130.463 2 998 0 0 13.7351 130.470 1 29 998 13.7775 130.642 TD 30 1000 10 301
1990180N09159 1990 44 WP MM ROBYN 1990-07-07 00:00:00 TS 14.2000 130.075 998 tokyo main 546 526 OOOO__________ jtwc_wp WP081990 14.7000 130.100 30 -1 14.0000 130.000 2 998 0 0 0 14.0000 130.000 1 29 998 14.1000 130.200 TD 30 1000 10 309
1990180N09159 1990 44 WP MM ROBYN 1990-07-07 03:00:00 TS 14.5130 129.737 main 522 515 PPPP__________ WP081990 15.0198 129.772 30 -1 14.2123 129.712 2 998 0 0 14.3273 129.685 1 29 998 14.4925 129.778 TD 27 1000 9 317
1990180N09159 1990 44 WP MM ROBYN 1990-07-07 06:00:00 TS 14.8750 129.425 998 tokyo main 518 514 OOOO__________ jtwc_wp WP081990 15.4000 129.400 30 -1 14.5000 129.500 2 998 0 0 0 14.7000 129.400 1 29 998 14.9000 129.400 TD 25 1000 10 320
1990180N09159 1990 44 WP MM ROBYN 1990-07-07 09:00:00 TS 15.2906 129.064 main 521 504 PPPP__________ WP081990 15.8351 128.908 30 -1 15.0000 129.250 2 998 0 0 15.0776 129.000 1 29 998 15.2498 129.100 TD 25 1000 11 321
1990180N09159 1990 44 WP MM ROBYN 1990-07-07 12:00:00 TS 15.7250 128.700 998 tokyo main 504 489 OOOO__________ jtwc_wp WP081990 16.3000 128.400 30 -1 15.5000 129.000 2 998 0 0 0 15.5000 128.600 1 29 998 15.6000 128.800 TD 25 1000 11 321
1990180N09159 1990 44 WP MM ROBYN 1990-07-07 15:00:00 TS 16.1268 128.357 main 495 483 PPPP__________ WP081990 16.7649 127.977 30 -1 15.7500 128.750 2 998 0 0 15.9999 128.292 1 29 998 15.9925 128.408 TD 27 1000 10 321
1990180N09159 1990 44 WP MM ROBYN 1990-07-07 18:00:00 TS 16.5250 128.025 998 tokyo main 483 482 OOOO__________ jtwc_wp WP081990 17.2000 127.600 30 -1 16.0000 128.500 2 998 0 0 0 16.5000 128.000 1 29 998 16.4000 128.000 TD 30 1000 10 323
1990180N09159 1990 44 WP MM ROBYN 1990-07-07 21:00:00 TS 16.9261 127.721 main 487 487 PPPP__________ WP081990 17.5724 127.242 30 -1 16.4247 128.321 2 998 0 0 16.9148 127.680 1 29 998 16.7924 127.642 TD 30 1000 10 323
1990180N09159 1990 44 WP MM ROBYN 1990-07-08 00:00:00 TS 17.3500 127.375 998 tokyo main 504 475 OOOO__________ jtwc_wp WP081990 17.9000 126.900 30 -1 17.0000 128.000 2 998 0 0 0 17.3000 127.300 1 29 998 17.2000 127.300 TD 30 1000 12 319
1990180N09159 1990 44 WP MM ROBYN 1990-07-08 03:00:00 TS 17.8106 126.923 35 996 tokyo main 475 454 POPP__________ WP081990 18.2075 126.542 30 -1 17.7000 127.400 3 35 996 0 9 225 225 0 17.6927 126.800 1 29 998 17.6424 126.950 TD 30 1000 12 321
1990180N09159 1990 44 WP MM ROBYN 1990-07-08 06:00:00 TS 18.3000 126.575 35 996 tokyo main 454 422 OOOO__________ jtwc_wp WP081990 18.5000 126.200 30 -1 18.5000 127.200 3 35 996 0 9 120 120 0 18.1000 126.300 1 29 998 18.1000 126.600 TD 30 1000 11 325
1990180N09159 1990 44 WP MM ROBYN 1990-07-08 09:00:00 TS 18.7260 126.243 main 412 395 PPPP__________ WP081990 18.7925 125.877 32 -1 18.9818 126.946 3 35 996 0 9 120 120 18.5573 125.920 1 33 996 18.5725 126.228 TD 30 1000 10 323
1990180N09159 1990 44 WP MM ROBYN 1990-07-08 12:00:00 TS 19.1000 125.950 35 996 tokyo main 397 374 OOOO__________ jtwc_wp WP081990 19.1000 125.600 35 0 19.3000 126.700 3 35 996 0 9 120 120 0 19.0000 125.600 2 38 995 19.0000 125.900 TD 30 1000 9 326
1990180N09159 1990 44 WP MM ROBYN 1990-07-08 15:00:00 TS 19.4386 125.728 main 374 370 PPPP__________ WP081990 19.4274 125.385 35 0 19.6774 126.557 3 37 995 0 9 122 122 19.3575 125.277 2 38 992 19.2923 125.692 TD 32 997 8 330
1990180N09159 1990 44 WP MM ROBYN 1990-07-08 18:00:00 TS 19.8000 125.525 40 994 tokyo main 370 366 OOOO__________ jtwc_wp WP081990 19.8000 125.200 35 0 20.1000 126.400 3 40 994 0 9 125 125 0 19.7000 125.000 2 38 990 19.6000 125.500 TS 35 995 9 331
1990180N09159 1990 44 WP MM ROBYN 1990-07-08 21:00:00 TS 20.2319 125.266 main 373 371 PPPP__________ WP081990 20.2125 125.000 35 0 20.6201 126.108 3 40 994 0 9 125 125 20.0475 124.762 2 38 990 20.0476 125.193 TS 35 995 11 334
1990180N09159 1990 44 WP MM ROBYN 1990-07-09 00:00:00 TS 20.7500 125.025 40 994 tokyo main 389 389 OOOO__________ jtwc_wp WP081990 20.7000 124.800 35 0 21.2000 125.800 3 40 994 0 9 125 125 0 20.5000 124.600 2 38 990 20.6000 124.900 TS 35 995 12 342
1990180N09159 1990 44 WP MM ROBYN 1990-07-09 03:00:00 TS 21.3612 124.863 main 407 360 PPPP__________ WP081990 21.2700 124.607 37 0 21.7999 125.600 3 42 993 0 9 125 125 21.1475 124.535 2 38 990 21.2274 124.712 TS 35 995 13 348
1990180N09159 1990 44 WP MM ROBYN 1990-07-09 06:00:00 TS 22.0250 124.725 45 992 tokyo main 360 332 OOOO__________ jtwc_wp WP081990 21.9000 124.400 40 0 22.4000 125.400 3 45 992 0 9 125 125 0 21.9000 124.500 2 38 990 21.9000 124.600 TS 35 995 14 347
1990180N09159 1990 44 WP MM ROBYN 1990-07-09 09:00:00 TS 22.6825 124.543 main 320 287 PPPP__________ WP081990 22.5651 124.135 42 0 22.9576 125.093 3 45 992 0 9 125 125 22.6650 124.408 2 38 990 22.5425 124.535 TS 35 995 13 346
1990180N09159 1990 44 WP MM ROBYN 1990-07-09 12:00:00 TS 23.3250 124.375 45 992 tokyo main 287 252 OOOO__________ jtwc_wp WP081990 23.2000 123.900 45 0 23.5000 124.800 3 45 992 0 9 125 125 0 23.4000 124.300 2 38 990 23.2000 124.500 TS 35 995 13 348
1990180N09159 1990 44 WP MM ROBYN 1990-07-09 15:00:00 TS 23.9106 124.263 main 252 228 PPPP__________ WP081990 23.7299 123.777 45 0 24.0199 124.627 3 45 992 0 9 162 112 24.0075 124.200 2 38 990 23.8850 124.450 TS 37 992 12 351
1990180N09159 1990 44 WP MM ROBYN 1990-07-09 18:00:00 TS 24.5000 124.175 45 992 tokyo main 228 211 OOOO__________ jtwc_wp WP081990 24.2000 123.700 45 0 24.6000 124.500 3 45 992 0 2 200 100 0 24.6000 124.100 2 38 990 24.6000 124.400 TS 40 990 13 352
1990180N09159 1990 44 WP MM ROBYN 1990-07-09 21:00:00 TS 25.1531 124.069 main 212 203 PPPP__________ WP081990 24.6425 123.585 45 0 25.3275 124.328 3 45 992 0 2 200 100 25.2850 124.007 2 43 987 25.3575 124.357 TS 40 990 13 352
1990180N09159 1990 44 WP MM ROBYN 1990-07-10 00:00:00 TS 25.8250 123.975 45 992 tokyo main 219 219 OOOO__________ jtwc_wp WP081990 25.1000 123.500 45 0 26.1000 124.200 3 45 992 0 2 200 100 0 26.0000 123.900 3 48 985 26.1000 124.300 TS 40 990 13 353
1990180N09159 1990 44 WP MM ROBYN 1990-07-10 03:00:00 TS 26.4844 123.886 main 253 253 PPPP__________ WP081990 25.6275 123.485 42 0 26.8225 124.177 3 45 992 0 2 200 100 26.7225 123.706 3 48 985 26.7650 124.178 TS 40 990 13 355
1990180N09159 1990 44 WP MM ROBYN 1990-07-10 06:00:00 TS 27.1250 123.850 45 992 tokyo main 262 235 OOOO__________ jtwc_wp WP081990 26.2000 123.500 40 0 27.5000 124.200 3 45 992 0 2 200 100 0 27.4000 123.600 3 48 985 27.4000 124.100 TS 40 990 13 0
1990180N09159 1990 44 WP MM ROBYN 1990-07-10 09:00:00 TS 27.7381 123.897 main 235 219 PPPP__________ WP081990 26.7850 123.493 37 0 28.1075 124.178 3 42 992 0 2 200 100 27.9800 123.739 3 48 985 28.0800 124.177 TS 40 990 12 6
1990180N09159 1990 44 WP MM ROBYN 1990-07-10 12:00:00 TS 28.3250 124.000 40 992 tokyo main 219 202 OOOO__________ jtwc_wp WP081990 27.4000 123.500 35 0 28.7000 124.200 3 40 992 0 3 200 100 0 28.5000 124.000 3 48 985 28.7000 124.300 TS 40 990 12 8
1990180N09159 1990 44 WP MM ROBYN 1990-07-10 15:00:00 TS 28.8780 124.088 main 206 203 PPPP__________ WP081990 28.0274 123.498 35 0 29.3274 124.298 3 40 992 0 3 200 100 29.0074 124.235 3 43 987 29.1499 124.321 TS 37 990 12 11
1990180N09159 1990 44 WP MM ROBYN 1990-07-10 18:00:00 TS 29.4500 124.250 40 992 tokyo main 225 223 OOOO__________ jtwc_wp WP081990 28.7000 123.600 35 0 30.0000 124.500 3 40 992 0 3 200 100 0 29.5000 124.500 2 38 990 29.6000 124.400 TS 35 990 13 18
1990180N09159 1990 44 WP MM ROBYN 1990-07-10 21:00:00 TS 30.0749 124.527 main 252 252 PPPP__________ WP081990 29.4275 123.883 35 0 30.7350 124.812 3 40 992 0 3 225 175 29.9323 124.764 2 38 990 30.2050 124.648 TS 32 990 14 23
1990180N09159 1990 44 WP MM ROBYN 1990-07-11 00:00:00 TS 30.7667 124.893 40 992 tokyo main 286 211 OOOO__________ jtwc_wp WP081990 30.2000 124.300 35 0 31.5000 125.200 3 40 992 0 9 250 250 0 30.5000 125.100 2 38 990 30.9000 125.000 TD 30 990 16 24
1990180N09159 1990 44 WP MM ROBYN 1990-07-11 03:00:00 TS 31.5748 125.305 main 201 100 PPPP__________ WP081990 30.9842 124.720 35 0 32.2800 125.607 3 40 992 0 9 250 200 31.4274 125.547 2 38 991 31.6402 125.391 TD 30 990 18 25
1990180N09159 1990 44 WP MM ROBYN 1990-07-11 06:00:00 TS 32.4000 125.800 40 992 tokyo main 100 11 OOOO__________ jtwc_wp WP081990 31.8000 125.300 35 0 33.0000 126.000 3 40 992 0 3 250 150 0 32.4000 126.100 2 38 992 32.4000 125.800 TD 30 990 18 30
1990180N09159 1990 44 WP MM ROBYN 1990-07-11 09:00:00 TS 33.1252 126.358 main 11 0 PPP___________ WP081990 32.6565 126.081 32 -1 33.6240 126.249 3 40 992 0 3 250 150 33.0952 126.743 2 38 992 TD 17 37
1990180N09159 1990 44 WP MM ROBYN 1990-07-11 12:00:00 TS 33.7667 127.033 40 992 tokyo main 34 33 OOO___________ jtwc_wp WP081990 33.5000 127.100 30 -1 34.1000 126.600 3 40 992 0 3 250 150 0 33.7000 127.400 2 38 992 17 46
1990180N09159 1990 44 WP MM ROBYN 1990-07-11 15:00:00 TS 34.3169 127.859 main 34 14 PPP___________ WP081990 34.2517 128.386 30 -1 34.3649 127.254 3 37 992 0 3 200 150 34.3341 127.937 2 38 992 18 52
1990180N09159 1990 44 WP MM ROBYN 1990-07-11 18:00:00 TS 34.8667 128.767 35 992 tokyo main 21 0 OOO___________ jtwc_wp WP081990 35.0000 129.700 30 -1 34.6000 128.100 3 35 992 0 9 150 150 0 35.0000 128.500 2 38 992 20 51
1990180N09159 1990 44 WP MM ROBYN 1990-07-11 21:00:00 TS 35.5704 129.720 main 27 27 PPP___________ WP081990 35.8871 130.834 30 -1 35.0506 129.048 3 992 0 9 35.7734 129.278 2 33 992 20 47
1990180N09159 1990 44 WP MM ROBYN 1990-07-12 00:00:00 TS 36.2333 130.567 992 tokyo main 92 92 OOO___________ jtwc_wp WP081990 36.7000 131.700 30 -1 35.5000 130.000 2 992 0 0 0 36.5000 130.000 1 29 993 16 46
1990180N09159 1990 44 WP MM ROBYN 1990-07-12 03:00:00 TS 36.6687 131.123 main 142 142 PPP___________ WP081990 37.2661 132.216 30 -1 35.6665 130.785 2 992 0 0 37.0736 130.368 1 29 993 12 44
1990180N09159 1990 44 WP MM ROBYN 1990-07-12 06:00:00 TS 37.0667 131.567 992 tokyo main 191 191 OOO___________ jtwc_wp WP081990 37.7000 132.500 30 -1 36.0000 131.500 2 992 0 0 0 37.5000 130.700 1 29 993 13 40
1990180N09159 1990 44 WP MM ROBYN 1990-07-12 09:00:00 TS 37.6244 132.145 main 244 244 PPP___________ WP081990 38.1223 132.788 30 -1 36.9634 132.356 2 992 0 0 37.7875 131.291 1 26 993 14 38
1990180N09159 1990 44 WP MM ROBYN 1990-07-12 12:00:00 MX 38.1667 132.667 992 tokyo main 301 301 OOO___________ jtwc_wp WP081990 38.5000 133.000 30 -1 38.0000 133.000 6 992 0 0 0 38.0000 132.000 1 23 993 12 37
1990180N09159 1990 44 WP MM ROBYN 1990-07-12 15:00:00 MX 38.5458 133.033 main 334 334 PPP___________ WP081990 38.8499 133.173 30 -1 38.5741 133.116 6 992 0 0 38.2134 132.810 1 23 993 8 33
1990180N09159 1990 44 WP MM ROBYN 1990-07-12 18:00:00 MX 38.8727 133.264 992 tokyo main 347 347 OOO___________ jtwc_wp WP081990 39.2000 133.300 30 -1 39.0000 133.000 6 992 0 0 0 38.5000 133.500 1 23 993 8 20
1990180N09159 1990 44 WP MM ROBYN 1990-07-12 21:00:00 MX 39.3322 133.411 main 355 325 PPP___________ WP081990 39.5875 133.405 30 -1 39.5750 133.000 6 992 0 0 38.9616 133.826 1 23 994 9 11
1990180N09159 1990 44 WP MM ROBYN 1990-07-13 00:00:00 MX 39.7778 133.500 992 tokyo main 325 293 OOO___________ jtwc_wp WP081990 40.0000 133.500 30 -1 40.0000 133.000 6 992 0 0 0 39.5000 134.000 1 23 995 8 14
1990180N09159 1990 44 WP MM ROBYN 1990-07-13 03:00:00 MX 40.0750 133.643 main 293 284 _PP___________ WP081990 -1 40.0750 133.000 6 993 0 0 40.0751 134.287 1 23 995 5 22
1990180N09159 1990 44 WP MM ROBYN 1990-07-13 06:00:00 MX 40.2500 133.750 994 tokyo main 275 275 _OO___________ -1 40.0000 133.000 6 994 0 0 0 40.5000 134.500 1 23 996 2 30
1990180N09159 1990 44 WP MM ROBYN 1990-07-13 09:00:00 MX 40.2124 133.751 main 285 284 _PP___________ -1 39.9250 133.000 6 995 0 0 40.4998 134.501 1 21 998 0 0
1990180N09159 1990 44 WP MM ROBYN 1990-07-13 12:00:00 MX 40.2500 133.750 996 tokyo main 275 232 _OO___________ -1 40.0000 133.000 6 996 0 0 0 40.5000 134.500 0 19 1000 5 10
1990180N09159 1990 44 WP MM ROBYN 1990-07-13 15:00:00 MX 40.7501 133.874 main 223 179 _PP___________ -1 40.5000 133.000 6 998 0 0 41.0003 134.748 0 19 1000 10 11
1990180N09159 1990 44 WP MM ROBYN 1990-07-13 18:00:00 MX 41.2500 134.000 1000 tokyo main 168 168 _OO___________ -1 41.0000 133.000 6 1000 0 0 0 41.5000 135.000 0 19 1000 5 11
1990180N09159 1990 44 WP MM ROBYN 1990-07-13 21:00:00 MX 41.2499 134.001 main 179 179 _PP___________ -1 41.0000 133.000 6 1001 0 0 41.4998 135.001 0 19 1001 0 0
1990180N09159 1990 44 WP MM ROBYN 1990-07-14 00:00:00 MX 41.2500 134.000 1002 tokyo main 168 137 _OO___________ -1 41.0000 133.000 6 1002 0 0 0 41.5000 135.000 0 19 1002 4 10
1990180N09159 1990 44 WP MM ROBYN 1990-07-14 03:00:00 MX 41.6252 134.093 main 137 78 _PP___________ -1 41.3750 133.000 6 1003 0 0 41.8753 135.185 0 19 1003 10 11
1990180N09159 1990 44 WP MM ROBYN 1990-07-14 06:00:00 MX 42.2500 134.250 1004 tokyo main 74 _OO___________ -1 42.0000 133.000 6 1004 0 0 0 42.5000 135.500 0 19 1004 13 11

デジタル台風データ・検索

IBTrACS Databaseについて

本データベースは、米国NOAAが公開する1842年以降の世界の熱帯低気圧のベストトラックデータアーカイブInternational Best Track Archive for Climate Stewardship (IBTrACS)を、ウェブで閲覧しやすい形式に変換したものです。

最終更新日:2021-10-25